createdAt,value
2023-02-19T00:00:58.069Z,507.00
2023-02-19T00:01:58.095Z,506.00
2023-02-19T00:02:58.122Z,504.00
2023-02-19T00:03:58.152Z,503.00
2023-02-19T00:04:58.210Z,502.00
2023-02-19T00:05:58.193Z,508.00
2023-02-19T00:06:58.253Z,503.00
2023-02-19T00:07:58.238Z,510.00
2023-02-19T00:08:58.281Z,503.00
2023-02-19T00:09:58.337Z,505.00
2023-02-19T00:10:58.307Z,505.00
2023-02-19T00:11:58.337Z,506.00
2023-02-19T00:12:58.369Z,507.00
2023-02-19T00:13:58.394Z,504.00
2023-02-19T00:14:58.418Z,504.00
2023-02-19T00:15:58.480Z,508.00
2023-02-19T00:16:58.469Z,506.00
2023-02-19T00:17:58.501Z,508.00
2023-02-19T00:18:58.533Z,505.00
2023-02-19T00:19:58.559Z,507.00
2023-02-19T00:20:58.591Z,506.00
2023-02-19T00:21:58.619Z,508.00
2023-02-19T00:22:58.645Z,500.00
2023-02-19T00:23:58.661Z,504.00
2023-02-19T00:24:58.693Z,504.00
2023-02-19T00:26:05.988Z,504.00
2023-02-19T00:26:59.686Z,504.00
2023-02-19T00:27:58.723Z,505.00
2023-02-19T00:28:58.611Z,502.00
2023-02-19T00:29:58.622Z,504.00
2023-02-19T00:30:58.554Z,504.00
2023-02-19T00:31:58.653Z,508.00
2023-02-19T00:32:58.456Z,503.00
2023-02-19T00:33:58.424Z,503.00
2023-02-19T00:34:58.382Z,503.00
2023-02-19T00:35:58.334Z,505.00
2023-02-19T00:36:58.371Z,508.00
2023-02-19T00:37:58.386Z,508.00
2023-02-19T00:38:58.430Z,507.00
2023-02-19T00:39:58.468Z,503.00
2023-02-19T00:40:58.481Z,503.00
2023-02-19T00:41:58.518Z,509.00
2023-02-19T00:42:58.546Z,504.00
2023-02-19T00:43:58.562Z,502.00
2023-02-19T00:44:58.587Z,506.00
2023-02-19T00:45:58.668Z,508.00
2023-02-19T00:46:58.641Z,502.00
2023-02-19T00:47:58.651Z,501.00
2023-02-19T00:48:58.687Z,502.00
2023-02-19T00:49:59.233Z,504.00
2023-02-19T00:50:58.747Z,502.00
2023-02-19T00:51:58.770Z,504.00
2023-02-19T00:52:58.797Z,503.00
2023-02-19T00:53:58.838Z,503.00
2023-02-19T00:54:58.852Z,503.00
2023-02-19T00:55:58.889Z,501.00
2023-02-19T00:56:58.997Z,501.00
2023-02-19T00:57:58.940Z,505.00
2023-02-19T00:58:59.036Z,503.00
2023-02-19T00:59:58.995Z,506.00
2023-02-19T01:00:59.023Z,507.00
2023-02-19T01:01:59.105Z,505.00
2023-02-19T01:02:59.081Z,507.00
2023-02-19T01:03:59.116Z,511.00
2023-02-19T01:04:59.258Z,505.00
2023-02-19T01:05:59.162Z,511.00
2023-02-19T01:06:59.194Z,509.00
2023-02-19T01:07:59.228Z,503.00
2023-02-19T01:08:59.250Z,505.00
2023-02-19T01:09:59.284Z,504.00
2023-02-19T01:10:59.297Z,506.00
2023-02-19T01:12:00.224Z,504.00
2023-02-19T01:12:59.364Z,505.00
2023-02-19T01:13:59.394Z,506.00
2023-02-19T01:14:59.420Z,505.00
2023-02-19T01:15:59.470Z,504.00
2023-02-19T01:16:59.477Z,504.00
2023-02-19T01:17:59.521Z,505.00
2023-02-19T01:18:59.549Z,508.00
2023-02-19T01:19:59.587Z,504.00
2023-02-19T01:20:59.631Z,503.00
2023-02-19T01:21:59.776Z,504.00
2023-02-19T01:22:59.734Z,506.00
2023-02-19T01:23:59.765Z,505.00
2023-02-19T01:24:59.742Z,506.00
2023-02-19T01:25:59.824Z,502.00
2023-02-19T01:26:59.867Z,504.00
2023-02-19T01:27:59.834Z,503.00
2023-02-19T01:29:00.728Z,500.00
2023-02-19T01:29:59.909Z,505.00
2023-02-19T01:30:59.966Z,505.00
2023-02-19T01:32:00.038Z,507.00
2023-02-19T01:32:59.989Z,505.00
2023-02-19T01:34:00.119Z,506.00
2023-02-19T01:35:00.076Z,505.00
2023-02-19T01:36:00.102Z,502.00
2023-02-19T01:37:00.123Z,504.00
2023-02-19T01:38:00.156Z,505.00
2023-02-19T01:39:00.180Z,506.00
2023-02-19T01:40:00.220Z,505.00
2023-02-19T01:41:00.248Z,504.00
2023-02-19T01:42:00.313Z,507.00
2023-02-19T01:43:00.320Z,503.00
2023-02-19T01:44:00.357Z,505.00
2023-02-19T01:45:00.359Z,506.00
2023-02-19T01:46:00.393Z,507.00
2023-02-19T01:47:00.514Z,501.00
2023-02-19T01:48:00.468Z,505.00
2023-02-19T01:49:00.479Z,506.00
2023-02-19T01:50:00.509Z,505.00
2023-02-19T01:51:00.549Z,503.00
2023-02-19T01:52:00.591Z,506.00
2023-02-19T01:53:00.600Z,504.00
2023-02-19T01:54:00.624Z,509.00
2023-02-19T01:55:00.662Z,507.00
2023-02-19T01:56:00.697Z,507.00
2023-02-19T01:57:00.783Z,509.00
2023-02-19T01:58:00.738Z,504.00
2023-02-19T01:59:00.772Z,502.00
2023-02-19T02:00:01.058Z,508.00
2023-02-19T02:01:00.848Z,504.00
2023-02-19T02:02:00.876Z,506.00
2023-02-19T02:03:00.877Z,505.00
2023-02-19T02:04:00.888Z,507.00
2023-02-19T02:05:00.902Z,505.00
2023-02-19T02:06:00.905Z,504.00
2023-02-19T02:07:00.939Z,507.00
2023-02-19T02:08:00.966Z,509.00
2023-02-19T02:09:01.251Z,507.00
2023-02-19T02:10:01.016Z,501.00
2023-02-19T02:11:01.734Z,502.00
2023-02-19T02:12:01.087Z,504.00
2023-02-19T02:13:01.135Z,508.00
2023-02-19T02:14:01.174Z,501.00
2023-02-19T02:15:01.193Z,500.00
2023-02-19T02:16:01.236Z,502.00
2023-02-19T02:17:01.275Z,508.00
2023-02-19T02:18:02.245Z,504.00
2023-02-19T02:19:01.357Z,505.00
2023-02-19T02:20:01.392Z,501.00
2023-02-19T02:21:01.426Z,506.00
2023-02-19T02:22:01.475Z,503.00
2023-02-19T02:23:01.509Z,505.00
2023-02-19T02:24:01.529Z,504.00
2023-02-19T02:25:01.560Z,505.00
2023-02-19T02:26:01.602Z,503.00
2023-02-19T02:27:01.642Z,506.00
2023-02-19T02:28:01.685Z,503.00
2023-02-19T02:29:01.706Z,504.00
2023-02-19T02:30:01.781Z,506.00
2023-02-19T02:31:01.799Z,506.00
2023-02-19T02:32:01.942Z,511.00
2023-02-19T02:33:01.861Z,508.00
2023-02-19T02:34:01.914Z,505.00
2023-02-19T02:35:01.949Z,505.00
2023-02-19T02:36:02.014Z,506.00
2023-02-19T02:37:02.063Z,504.00
2023-02-19T02:38:02.073Z,509.00
2023-02-19T02:39:02.110Z,506.00
2023-02-19T02:40:02.142Z,513.00
2023-02-19T02:41:02.189Z,505.00
2023-02-19T02:42:02.222Z,501.00
2023-02-19T02:43:02.263Z,505.00
2023-02-19T02:44:02.323Z,508.00
2023-02-19T02:45:02.317Z,508.00
2023-02-19T02:46:02.378Z,504.00
2023-02-19T02:47:02.384Z,502.00
2023-02-19T02:48:02.459Z,506.00
2023-02-19T02:49:02.457Z,506.00
2023-02-19T02:50:02.493Z,504.00
2023-02-19T02:51:02.561Z,505.00
2023-02-19T02:52:02.571Z,505.00
2023-02-19T02:53:02.612Z,505.00
2023-02-19T02:54:02.644Z,507.00
2023-02-19T02:55:02.873Z,510.00
2023-02-19T02:56:02.692Z,506.00
2023-02-19T02:57:02.736Z,505.00
2023-02-19T02:58:02.781Z,507.00
2023-02-19T02:59:02.817Z,501.00
2023-02-19T03:00:02.858Z,506.00
2023-02-19T03:01:02.981Z,505.00
2023-02-19T03:02:03.074Z,501.00
2023-02-19T03:03:02.997Z,502.00
2023-02-19T03:04:03.052Z,503.00
2023-02-19T03:05:03.130Z,507.00
2023-02-19T03:06:03.129Z,503.00
2023-02-19T03:07:03.154Z,508.00
2023-02-19T03:08:03.187Z,506.00
2023-02-19T03:09:03.217Z,510.00
2023-02-19T03:10:03.315Z,507.00
2023-02-19T03:11:03.307Z,502.00
2023-02-19T03:12:03.348Z,504.00
2023-02-19T03:13:03.394Z,510.00
2023-02-19T03:14:03.511Z,509.00
2023-02-19T03:15:03.489Z,504.00
2023-02-19T03:16:03.543Z,501.00
2023-02-19T03:17:03.609Z,503.00
2023-02-19T03:18:03.630Z,505.00
2023-02-19T03:19:03.679Z,504.00
2023-02-19T03:20:03.712Z,505.00
2023-02-19T03:21:03.768Z,503.00
2023-02-19T03:22:03.808Z,507.00
2023-02-19T03:23:03.877Z,502.00
2023-02-19T03:24:04.844Z,505.00
2023-02-19T03:25:03.939Z,505.00
2023-02-19T03:26:04.037Z,507.00
2023-02-19T03:27:04.045Z,505.00
2023-02-19T03:28:04.058Z,500.00
2023-02-19T03:29:04.109Z,506.00
2023-02-19T03:30:04.165Z,503.00
2023-02-19T03:31:04.205Z,502.00
2023-02-19T03:32:04.297Z,507.00
2023-02-19T03:33:04.220Z,509.00
2023-02-19T03:34:04.283Z,509.00
2023-02-19T03:35:04.305Z,509.00
2023-02-19T03:36:04.328Z,507.00
2023-02-19T03:37:04.351Z,505.00
2023-02-19T03:38:04.430Z,505.00
2023-02-19T03:39:04.410Z,509.00
2023-02-19T03:40:04.455Z,510.00
2023-02-19T03:41:04.488Z,504.00
2023-02-19T03:42:04.527Z,507.00
2023-02-19T03:43:04.559Z,505.00
2023-02-19T03:44:04.599Z,509.00
2023-02-19T03:45:04.654Z,504.00
2023-02-19T03:46:04.730Z,506.00
2023-02-19T03:47:04.754Z,503.00
2023-02-19T03:48:04.782Z,508.00
2023-02-19T03:49:04.841Z,504.00
2023-02-19T03:50:04.880Z,506.00
2023-02-19T03:51:04.915Z,507.00
2023-02-19T03:52:04.957Z,505.00
2023-02-19T03:53:05.018Z,503.00
2023-02-19T03:54:05.061Z,507.00
2023-02-19T03:55:05.113Z,505.00
2023-02-19T03:56:05.117Z,503.00
2023-02-19T03:57:05.151Z,505.00
2023-02-19T03:58:05.176Z,507.00
2023-02-19T03:59:05.218Z,507.00
2023-02-19T04:00:05.353Z,510.00
2023-02-19T04:01:05.321Z,511.00
2023-02-19T04:02:05.386Z,508.00
2023-02-19T04:03:05.378Z,507.00
2023-02-19T05:16:07.872Z,506.00
2023-02-19T05:18:07.878Z,510.00
2023-02-19T05:19:07.892Z,514.00
2023-02-19T05:20:07.928Z,507.00
2023-02-19T05:21:08.299Z,507.00
2023-02-19T05:22:07.985Z,510.00
2023-02-19T05:23:08.014Z,506.00
2023-02-19T05:24:08.072Z,509.00
2023-02-19T13:30:12.493Z,609.00
2023-02-19T13:32:12.432Z,616.00
2023-02-19T13:33:12.324Z,616.00
2023-02-19T13:34:12.281Z,615.00
2023-02-19T13:36:12.265Z,612.00
2023-02-19T13:37:12.236Z,619.00
2023-02-19T13:38:12.247Z,624.00
2023-02-19T13:39:12.257Z,628.00
2023-02-19T13:40:12.238Z,632.00
2023-02-19T13:41:12.463Z,632.00
2023-02-19T13:42:12.219Z,639.00
2023-02-19T13:43:12.206Z,641.00
2023-02-19T13:44:12.215Z,641.00
2023-02-19T13:45:12.157Z,645.00
2023-02-19T13:46:12.149Z,646.00
2023-02-19T13:47:12.085Z,642.00
2023-02-19T13:48:12.049Z,642.00
2023-02-19T13:49:12.023Z,637.00
2023-02-19T13:50:11.997Z,633.00
2023-02-19T13:51:12.262Z,635.00
2023-02-19T13:52:11.948Z,622.00
2023-02-19T13:53:11.938Z,629.00
2023-02-19T13:54:11.945Z,623.00
2023-02-19T13:55:12.073Z,627.00
2023-02-19T13:56:11.945Z,618.00
2023-02-19T13:57:11.965Z,623.00
2023-02-19T13:58:11.943Z,616.00
2023-02-19T13:59:11.956Z,615.00
2023-02-19T14:00:11.957Z,612.00
2023-02-19T14:01:12.392Z,611.00
2023-02-19T14:02:11.961Z,603.00
2023-02-19T14:03:11.919Z,603.00
2023-02-19T14:04:11.893Z,604.00
2023-02-19T14:05:11.898Z,603.00
2023-02-19T14:06:11.932Z,599.00
2023-02-19T14:07:11.847Z,604.00
2023-02-19T14:08:11.834Z,600.00
2023-02-19T14:09:11.825Z,598.00
2023-02-19T14:10:11.808Z,594.00
2023-02-19T14:11:12.020Z,600.00
2023-02-19T14:12:13.621Z,599.00
2023-02-19T14:13:11.775Z,600.00
2023-02-19T14:14:11.655Z,598.00
2023-02-19T14:15:11.569Z,597.00
2023-02-19T14:16:11.544Z,601.00
2023-02-19T14:17:11.456Z,596.00
2023-02-19T14:18:11.388Z,595.00
2023-02-19T14:19:11.322Z,596.00
2023-02-19T14:20:11.263Z,597.00
2023-02-19T14:21:11.404Z,594.00
2023-02-19T14:22:11.217Z,594.00
2023-02-19T14:23:11.070Z,589.00
2023-02-19T14:24:11.007Z,591.00
2023-02-19T14:25:10.940Z,596.00
2023-02-19T14:26:10.897Z,590.00
2023-02-19T14:27:10.828Z,584.00
2023-02-19T14:28:10.762Z,589.00
2023-02-19T14:29:10.679Z,588.00
2023-02-19T14:30:10.696Z,582.00
2023-02-19T14:31:11.074Z,583.00
2023-02-19T14:32:11.040Z,591.00
2023-02-19T14:33:11.341Z,577.00
2023-02-19T14:34:10.367Z,585.00
2023-02-19T14:35:10.304Z,578.00
2023-02-19T14:36:10.323Z,575.00
2023-02-19T14:37:10.184Z,577.00
2023-02-19T14:38:11.001Z,575.00
2023-02-19T14:39:10.060Z,576.00
2023-02-19T14:40:10.003Z,581.00
2023-02-19T14:41:10.340Z,573.00
2023-02-19T14:42:09.903Z,573.00
2023-02-19T14:43:10.506Z,575.00
2023-02-19T14:44:09.777Z,575.00
2023-02-19T14:45:09.725Z,570.00
2023-02-19T14:46:09.725Z,568.00
2023-02-19T14:47:09.635Z,570.00
2023-02-19T14:48:09.528Z,566.00
2023-02-19T14:49:09.467Z,568.00
2023-02-19T14:50:09.394Z,563.00
2023-02-19T14:51:09.715Z,565.00
2023-02-19T14:52:09.260Z,563.00
2023-02-19T14:53:09.197Z,556.00
2023-02-19T14:54:09.149Z,562.00
2023-02-19T14:55:09.078Z,558.00
2023-02-19T14:56:09.019Z,555.00
2023-02-19T14:57:08.955Z,552.00
2023-02-19T14:58:08.904Z,552.00
2023-02-19T15:00:08.782Z,549.00
2023-02-19T15:01:08.982Z,551.00
2023-02-19T15:02:08.672Z,544.00
2023-02-19T15:10:08.312Z,543.00
2023-02-19T15:11:08.301Z,542.00
2023-02-19T15:12:08.233Z,538.00
2023-02-19T15:13:08.199Z,531.00
2023-02-19T15:14:08.160Z,539.00
2023-02-19T15:15:08.117Z,535.00
2023-02-19T15:16:08.118Z,535.00
2023-02-19T15:17:08.036Z,534.00
2023-02-19T15:18:08.004Z,535.00
2023-02-19T15:19:07.978Z,531.00
2023-02-19T15:20:07.921Z,539.00
2023-02-19T15:21:07.906Z,530.00
2023-02-19T15:22:07.817Z,536.00
2023-02-19T15:31:08.112Z,531.00
2023-02-19T19:43:02.923Z,533.00
2023-02-19T19:44:02.908Z,535.00
2023-02-19T19:45:02.941Z,537.00
2023-02-19T19:46:02.894Z,538.00
2023-02-19T19:47:02.853Z,537.00
2023-02-19T19:48:02.853Z,535.00
2023-02-19T19:49:02.894Z,537.00
2023-02-19T19:50:02.826Z,537.00
2023-02-19T19:51:02.862Z,539.00
2023-02-19T19:52:02.867Z,541.00
2023-02-19T19:53:02.795Z,536.00
2023-02-19T19:54:02.789Z,532.00
2023-02-19T19:55:02.803Z,539.00
2023-02-19T19:56:02.766Z,538.00
2023-02-19T19:57:02.759Z,535.00
2023-02-19T19:58:02.752Z,534.00
2023-02-19T19:59:02.738Z,533.00
2023-02-19T20:00:02.722Z,535.00
2023-02-19T20:01:02.705Z,535.00
2023-02-19T20:02:02.705Z,534.00
2023-02-19T20:03:02.717Z,541.00
2023-02-19T20:04:02.670Z,534.00
2023-02-19T20:05:02.662Z,538.00
2023-02-19T20:06:02.648Z,536.00
2023-02-19T20:07:02.663Z,536.00
2023-02-19T20:08:02.620Z,536.00
2023-02-19T20:09:02.600Z,538.00
2023-02-19T20:10:02.582Z,537.00
2023-02-19T20:11:02.563Z,536.00
2023-02-19T20:12:02.692Z,540.00
2023-02-19T20:13:02.543Z,537.00
2023-02-19T20:14:02.549Z,539.00
2023-02-19T20:15:02.515Z,537.00
2023-02-19T20:39:02.346Z,540.00
2023-02-19T20:40:02.346Z,536.00
2023-02-19T20:41:02.318Z,539.00
2023-02-19T20:42:02.314Z,541.00
2023-02-19T20:43:03.137Z,541.00
2023-02-19T20:44:02.304Z,541.00
2023-02-19T20:45:02.296Z,543.00
2023-02-19T20:46:02.293Z,543.00
2023-02-19T20:47:02.292Z,542.00
2023-02-19T20:48:02.369Z,542.00
2023-02-19T20:49:02.287Z,538.00
2023-02-19T20:50:02.261Z,540.00
2023-02-19T20:51:02.254Z,543.00
2023-02-19T20:52:02.268Z,541.00
2023-02-19T20:53:02.251Z,541.00
2023-02-19T20:54:02.242Z,542.00
2023-02-19T20:55:02.240Z,539.00
2023-02-19T20:56:02.223Z,544.00
2023-02-19T20:57:02.245Z,544.00
2023-02-19T20:58:02.221Z,542.00
2023-02-19T20:59:02.208Z,541.00
2023-02-19T21:00:02.216Z,536.00
2023-02-19T21:01:02.209Z,544.00
2023-02-19T21:02:02.216Z,541.00
2023-02-19T21:03:02.243Z,539.00
2023-02-19T21:04:02.202Z,540.00
2023-02-19T21:05:02.230Z,541.00
2023-02-19T21:06:02.202Z,542.00
2023-02-19T21:07:02.193Z,541.00
2023-02-19T21:08:02.215Z,537.00
2023-02-19T21:09:02.197Z,538.00
2023-02-19T21:10:02.277Z,541.00
2023-02-19T21:11:02.198Z,542.00
2023-02-19T21:12:02.205Z,543.00
2023-02-19T21:13:02.193Z,543.00
2023-02-19T21:14:02.213Z,541.00
2023-02-19T21:15:02.203Z,541.00
2023-02-19T21:16:02.204Z,539.00
2023-02-19T21:17:02.221Z,539.00
2023-02-19T21:18:02.190Z,542.00
2023-02-19T21:19:02.198Z,540.00
2023-02-19T21:20:02.203Z,542.00
2023-02-19T21:21:02.232Z,545.00
2023-02-19T21:22:02.237Z,536.00
2023-02-19T21:23:02.208Z,543.00
2023-02-19T21:24:02.245Z,538.00
2023-02-19T21:25:02.185Z,541.00
2023-02-19T21:26:02.191Z,540.00
2023-02-19T21:27:02.199Z,540.00
2023-02-19T21:28:02.226Z,539.00
2023-02-19T21:29:02.283Z,544.00
2023-02-19T21:30:02.209Z,540.00
2023-02-19T21:31:02.209Z,540.00
2023-02-19T21:32:02.245Z,542.00
2023-02-19T21:33:02.200Z,541.00
2023-02-19T21:34:02.189Z,539.00
2023-02-19T21:35:02.210Z,536.00
2023-02-19T21:36:02.224Z,538.00
2023-02-19T21:37:02.194Z,538.00
2023-02-19T21:38:02.372Z,538.00
2023-02-19T21:39:02.237Z,538.00
2023-02-19T21:40:02.224Z,545.00
2023-02-19T21:41:02.237Z,538.00
2023-02-19T21:42:02.490Z,541.00
2023-02-19T21:43:02.229Z,540.00
2023-02-19T21:44:02.320Z,539.00
2023-02-19T21:45:02.253Z,537.00
2023-02-19T21:46:02.329Z,538.00
2023-02-19T21:47:02.263Z,540.00
2023-02-19T21:48:02.279Z,545.00
2023-02-19T21:49:02.286Z,542.00
2023-02-19T21:50:02.286Z,540.00
2023-02-19T21:51:02.291Z,543.00
2023-02-19T21:52:02.297Z,543.00
2023-02-19T21:53:02.290Z,541.00
2023-02-19T21:54:02.308Z,536.00
2023-02-19T21:55:02.315Z,543.00
2023-02-19T21:56:02.312Z,539.00
2023-02-19T21:57:02.317Z,543.00
2023-02-19T21:58:03.227Z,543.00
2023-02-19T21:59:02.301Z,540.00
2023-02-19T22:00:02.316Z,542.00
2023-02-19T22:01:02.384Z,540.00
2023-02-19T22:02:02.334Z,543.00
2023-02-19T22:03:02.424Z,545.00
2023-02-19T22:04:02.344Z,536.00
2023-02-19T22:05:02.342Z,542.00
2023-02-19T22:06:02.351Z,536.00
2023-02-19T22:07:02.428Z,536.00
2023-02-19T22:08:02.432Z,538.00
2023-02-19T22:09:02.369Z,540.00
2023-02-19T22:10:02.380Z,539.00
2023-02-19T22:11:02.396Z,539.00
2023-02-19T22:12:02.403Z,537.00
2023-02-19T22:13:02.415Z,540.00
2023-02-19T22:14:02.415Z,540.00
2023-02-19T22:15:02.425Z,537.00
2023-02-19T22:16:02.474Z,537.00
2023-02-19T22:17:02.453Z,540.00
2023-02-19T22:18:02.460Z,540.00
2023-02-19T22:19:02.476Z,544.00
2023-02-19T22:20:02.493Z,539.00
2023-02-19T22:21:02.507Z,543.00
2023-02-19T22:22:02.512Z,543.00
2023-02-19T22:23:02.577Z,536.00
2023-02-19T22:24:02.533Z,536.00
2023-02-19T22:25:02.536Z,539.00
2023-02-19T22:26:02.557Z,543.00
2023-02-19T22:27:02.560Z,541.00
2023-02-19T22:28:02.565Z,539.00
2023-02-19T22:29:02.587Z,538.00
2023-02-19T22:30:02.633Z,540.00
2023-02-19T22:31:02.607Z,539.00
2023-02-19T22:32:02.688Z,540.00
2023-02-19T22:33:02.626Z,541.00
2023-02-19T22:34:02.619Z,543.00
2023-02-19T22:35:02.632Z,536.00
2023-02-19T22:36:02.664Z,537.00
2023-02-19T22:37:02.646Z,537.00
2023-02-19T22:38:02.659Z,538.00
2023-02-19T22:39:02.679Z,538.00
2023-02-19T22:40:02.676Z,538.00
2023-02-19T22:41:02.690Z,539.00
2023-02-19T22:42:02.700Z,539.00
2023-02-19T22:43:02.710Z,540.00
2023-02-19T22:44:02.721Z,539.00
2023-02-19T22:45:02.721Z,541.00
2023-02-19T22:46:02.834Z,534.00
2023-02-19T22:47:02.744Z,540.00
2023-02-19T22:48:02.765Z,535.00
2023-02-19T22:49:02.757Z,539.00
2023-02-19T22:50:02.775Z,541.00
2023-02-19T22:51:02.769Z,538.00
2023-02-19T22:52:02.792Z,540.00
2023-02-19T22:53:02.832Z,537.00
2023-02-19T22:54:02.806Z,539.00
2023-02-19T22:55:02.894Z,538.00
2023-02-19T22:56:02.837Z,540.00
2023-02-19T22:57:02.856Z,542.00
2023-02-19T22:58:02.869Z,537.00
2023-02-19T22:59:02.872Z,540.00
2023-02-19T23:00:02.887Z,539.00
2023-02-19T23:01:02.968Z,541.00
